createdAt,value
2022-12-17T02:01:59.925Z,99944.47
2022-12-17T02:03:22.250Z,99943.19
2022-12-17T02:04:43.603Z,99944.78
2022-12-17T02:06:16.529Z,99948.38
2022-12-17T02:08:07.650Z,99943.28
2022-12-17T02:09:38.900Z,99952.44
2022-12-17T02:11:11.586Z,99949.81
2022-12-17T02:13:01.270Z,99945.34
2022-12-17T02:14:51.493Z,99952.50
2022-12-17T02:16:31.319Z,99945.94
2022-12-17T02:18:07.151Z,99947.28
2022-12-17T02:19:51.983Z,99946.41
2022-12-17T02:21:15.872Z,99951.16
2022-12-17T02:22:53.441Z,99946.81
2022-12-17T02:24:30.506Z,99950.91
2022-12-17T02:26:19.407Z,99946.09
2022-12-17T02:27:41.650Z,99956.97
2022-12-17T02:29:07.566Z,99954.75
2022-12-17T02:30:29.435Z,99958.00
2022-12-17T02:31:52.317Z,99966.34
2022-12-17T02:33:13.824Z,99965.72
2022-12-17T02:34:38.178Z,99965.59
2022-12-17T02:36:06.356Z,99975.09
2022-12-17T02:37:26.888Z,99961.59
2022-12-17T02:38:50.520Z,99973.78
2022-12-17T02:40:11.458Z,99975.91
2022-12-17T02:41:37.297Z,99987.72
2022-12-17T02:43:03.678Z,99983.72
2022-12-17T02:44:27.863Z,99978.28
2022-12-17T02:45:49.620Z,99971.47
2022-12-17T02:47:13.230Z,99978.81
2022-12-17T02:48:35.217Z,99973.75
2022-12-17T02:49:56.262Z,99973.06
2022-12-17T02:51:17.973Z,99974.34
2022-12-17T02:52:40.475Z,99990.84
2022-12-17T02:54:02.955Z,99990.41
2022-12-17T02:55:24.369Z,99992.84
2022-12-17T02:56:45.015Z,100000.28
2022-12-17T02:58:05.854Z,100005.66
2022-12-17T02:59:26.719Z,99995.72
2022-12-17T03:00:47.361Z,99997.03
2022-12-17T03:02:08.214Z,99998.69
2022-12-17T03:03:29.503Z,99995.00
2022-12-17T03:04:50.173Z,99993.56
2022-12-17T03:06:11.014Z,99992.94
2022-12-17T03:07:32.122Z,99993.84
2022-12-17T03:08:52.941Z,99995.06
2022-12-17T03:10:13.656Z,99998.50
2022-12-17T03:11:36.857Z,99995.75
2022-12-17T03:12:57.648Z,99994.47
2022-12-17T03:14:18.745Z,99997.59
2022-12-17T03:15:39.316Z,99995.94
2022-12-17T03:16:59.787Z,99993.97
2022-12-17T03:18:20.861Z,100003.09
2022-12-17T03:19:41.435Z,100000.34
2022-12-17T03:21:02.022Z,100004.13
2022-12-17T03:22:23.284Z,99998.03
2022-12-17T03:23:43.676Z,100003.22
2022-12-17T03:25:04.677Z,100001.03
2022-12-17T03:26:25.758Z,100004.47
2022-12-17T03:27:46.260Z,99996.88
2022-12-17T03:29:07.807Z,100002.19
2022-12-17T03:30:33.226Z,99993.03
2022-12-17T03:31:56.861Z,99991.44
2022-12-17T03:33:17.370Z,100011.09
2022-12-17T03:34:38.365Z,100004.50
2022-12-17T03:35:59.333Z,100010.09
2022-12-17T03:37:20.429Z,100012.81
2022-12-17T03:38:41.518Z,100016.94
2022-12-17T03:40:02.140Z,100016.03
2022-12-17T03:41:23.217Z,100016.19
2022-12-17T03:42:44.257Z,100018.91
2022-12-17T03:44:04.757Z,100019.22
2022-12-17T03:45:25.609Z,100018.31
2022-12-17T03:46:46.233Z,100023.06
2022-12-17T03:48:07.543Z,100016.69
2022-12-17T03:49:28.597Z,100016.88
2022-12-17T03:50:49.215Z,100017.16
2022-12-17T03:52:10.264Z,100016.59
2022-12-17T03:53:31.201Z,100026.88
2022-12-17T03:54:51.664Z,100031.78
2022-12-17T03:56:12.629Z,100029.13
2022-12-17T03:57:33.608Z,100031.50
2022-12-17T03:58:54.624Z,100027.59
2022-12-17T04:00:15.661Z,100032.94
2022-12-17T04:01:36.948Z,100033.78
2022-12-17T04:02:58.237Z,100027.00
2022-12-17T04:04:19.053Z,100029.53
2022-12-17T04:05:39.477Z,100023.47
2022-12-17T04:06:59.941Z,100028.16
2022-12-17T04:08:20.476Z,100036.34
2022-12-17T04:09:41.762Z,100029.53
2022-12-17T04:11:02.426Z,100035.00
2022-12-17T04:12:23.510Z,100036.44
2022-12-17T04:13:44.217Z,100042.16
2022-12-17T04:15:05.097Z,100045.34
2022-12-17T04:16:26.565Z,100046.72
2022-12-17T04:17:47.783Z,100047.09
2022-12-17T04:19:08.576Z,100046.53
2022-12-17T04:20:29.532Z,100044.88
2022-12-17T04:21:50.026Z,100051.53
2022-12-17T04:23:10.626Z,100044.69
2022-12-17T04:24:42.373Z,100046.84
2022-12-17T04:26:03.406Z,100049.69
2022-12-17T04:27:24.173Z,100053.50
2022-12-17T04:28:45.126Z,100055.13
2022-12-17T04:30:06.255Z,100057.00
2022-12-17T04:31:26.723Z,100055.88
2022-12-17T04:32:47.302Z,100053.28
2022-12-17T04:34:07.750Z,100056.72
2022-12-17T04:35:28.411Z,100050.66
2022-12-17T04:36:49.069Z,100064.31
2022-12-17T04:38:10.622Z,100056.75
2022-12-17T04:39:31.593Z,100062.19
2022-12-17T04:40:52.479Z,100057.38
2022-12-17T04:42:13.943Z,100059.34
2022-12-17T04:43:35.485Z,100060.03
2022-12-17T04:44:56.502Z,100063.34
2022-12-17T04:46:17.819Z,100062.97
2022-12-17T04:47:38.743Z,100062.31
2022-12-17T04:48:59.311Z,100062.84
2022-12-17T04:50:19.803Z,100057.59
2022-12-17T04:51:40.941Z,100068.72
2022-12-17T04:53:01.927Z,100061.75
2022-12-17T04:54:23.081Z,100063.34
2022-12-17T04:55:43.557Z,100062.75
2022-12-17T04:57:04.768Z,100064.44
2022-12-17T04:58:25.560Z,100068.06
2022-12-17T04:59:46.271Z,100066.44
2022-12-17T05:01:26.354Z,100058.97
2022-12-17T05:02:47.527Z,100060.78
2022-12-17T05:04:08.244Z,100065.16
2022-12-17T05:05:29.264Z,100071.16
2022-12-17T05:06:49.715Z,100070.50
2022-12-17T05:08:14.825Z,100072.69
2022-12-17T05:09:35.374Z,100063.41
2022-12-17T05:10:56.568Z,100071.66
2022-12-17T05:12:17.109Z,100073.25
2022-12-17T05:13:37.705Z,100070.78
2022-12-17T05:14:59.097Z,100065.84
2022-12-17T05:16:19.802Z,100079.59
2022-12-17T05:17:40.379Z,100079.31
2022-12-17T05:19:01.542Z,100081.50
2022-12-17T05:20:22.618Z,100092.41
2022-12-17T05:21:43.685Z,100089.75
2022-12-17T05:23:04.851Z,100097.94
2022-12-17T05:24:25.970Z,100102.16
2022-12-17T05:25:46.521Z,100103.34
2022-12-17T05:27:07.208Z,100107.22
2022-12-17T05:28:28.258Z,100108.97
2022-12-17T05:29:49.303Z,100104.09
2022-12-17T05:31:12.053Z,100101.53
2022-12-17T05:32:46.186Z,100106.00
2022-12-17T05:34:07.277Z,100098.00
2022-12-17T05:35:28.336Z,100111.47
2022-12-17T05:36:48.887Z,100107.13
2022-12-17T05:38:09.329Z,100118.75
2022-12-17T05:39:30.496Z,100100.66
2022-12-17T05:40:51.584Z,100111.91
2022-12-17T05:42:12.194Z,100109.28
2022-12-17T05:43:32.857Z,100112.72
2022-12-17T05:44:53.444Z,100112.91
2022-12-17T05:46:17.156Z,100115.78
2022-12-17T05:47:38.354Z,100118.47
2022-12-17T05:48:59.561Z,100120.97
2022-12-17T05:50:19.997Z,100125.75
2022-12-17T05:51:41.650Z,100110.06
2022-12-17T05:53:02.238Z,100114.00
2022-12-17T05:54:23.433Z,100119.19
2022-12-17T05:55:44.602Z,100126.66
2022-12-17T05:57:05.195Z,100113.09
2022-12-17T05:58:29.075Z,100107.81
2022-12-17T05:59:49.960Z,100119.03
2022-12-17T06:01:18.735Z,100126.63
2022-12-17T06:02:39.633Z,100133.91
2022-12-17T06:04:00.812Z,100133.69
2022-12-17T06:05:22.569Z,100128.81
2022-12-17T06:06:43.719Z,100136.78
2022-12-17T06:08:15.201Z,100140.78
2022-12-17T06:09:36.055Z,100135.38
2022-12-17T06:10:56.520Z,100135.19
2022-12-17T06:12:17.058Z,100135.13
2022-12-17T06:13:38.359Z,100134.22
2022-12-17T06:14:59.537Z,100138.63
2022-12-17T06:16:20.516Z,100136.91
2022-12-17T06:17:41.787Z,100141.19
2022-12-17T06:19:02.689Z,100141.47
2022-12-17T06:20:23.835Z,100136.94
2022-12-17T06:21:44.990Z,100142.53
2022-12-17T06:23:06.015Z,100140.78
2022-12-17T06:24:26.943Z,100134.19
2022-12-17T06:25:47.728Z,100136.69
2022-12-17T06:27:08.803Z,100133.75
2022-12-17T06:28:29.755Z,100134.25
2022-12-17T06:29:50.978Z,100143.66
2022-12-17T06:31:13.192Z,100146.47
2022-12-17T06:32:33.992Z,100156.53
2022-12-17T06:33:55.215Z,100144.28
2022-12-17T06:35:16.261Z,100157.47
2022-12-17T06:36:36.975Z,100152.63
2022-12-17T06:37:58.526Z,100160.84
2022-12-17T06:39:19.763Z,100151.44
2022-12-17T06:40:41.427Z,100158.91
2022-12-17T06:42:04.574Z,100151.09
2022-12-17T06:43:27.168Z,100165.44
2022-12-17T06:44:47.729Z,100163.25
2022-12-17T06:46:10.228Z,100156.09
2022-12-17T06:47:31.588Z,100162.56
2022-12-17T06:48:52.389Z,100163.47
2022-12-17T06:50:12.937Z,100157.34
2022-12-17T06:51:33.368Z,100159.03
2022-12-17T06:52:54.450Z,100161.59
2022-12-17T06:54:15.362Z,100151.94
2022-12-17T06:55:35.987Z,100157.84
2022-12-17T06:56:56.506Z,100165.44
2022-12-17T06:58:18.549Z,100162.19
2022-12-17T06:59:39.545Z,100170.16
2022-12-17T07:01:00.634Z,100164.72
2022-12-17T07:02:21.491Z,100176.69
2022-12-17T07:03:42.174Z,100172.78
2022-12-17T07:05:02.845Z,100177.97
2022-12-17T07:06:23.857Z,100181.81
2022-12-17T07:07:44.862Z,100186.00
2022-12-17T07:09:06.054Z,100191.16
2022-12-17T07:10:27.735Z,100191.25
2022-12-17T07:11:48.812Z,100189.38
2022-12-17T07:13:09.409Z,100190.28
2022-12-17T07:14:30.216Z,100196.19
2022-12-17T07:15:50.953Z,100189.69
2022-12-17T07:17:11.903Z,100201.56
2022-12-17T07:18:32.921Z,100208.53
2022-12-17T07:19:54.081Z,100205.72
2022-12-17T07:21:14.575Z,100208.38
2022-12-17T07:22:34.985Z,100214.97
2022-12-17T07:23:56.151Z,100217.38
2022-12-17T07:25:17.716Z,100210.28
2022-12-17T07:26:39.305Z,100203.78
2022-12-17T07:27:59.735Z,100209.19
2022-12-17T07:29:23.431Z,100214.41
2022-12-17T07:30:44.404Z,100219.13
2022-12-17T07:32:05.636Z,100219.31
2022-12-17T07:33:28.509Z,100226.13
2022-12-17T07:34:49.859Z,100223.81
2022-12-17T07:36:12.105Z,100231.38
2022-12-17T07:37:33.301Z,100239.19
2022-12-17T07:38:53.828Z,100237.25
2022-12-17T07:40:14.473Z,100240.22
2022-12-17T07:41:34.997Z,100242.84
2022-12-17T07:42:58.512Z,100250.38
2022-12-17T07:44:19.700Z,100252.00
2022-12-17T07:45:41.202Z,100256.00
2022-12-17T07:47:02.294Z,100253.06
2022-12-17T07:48:23.144Z,100258.78
2022-12-17T07:49:44.089Z,100256.19
2022-12-17T07:51:09.238Z,100256.44
2022-12-17T07:52:30.261Z,100260.03
2022-12-17T07:53:52.094Z,100259.66
2022-12-17T07:55:18.073Z,100255.63
2022-12-17T07:56:39.470Z,100265.34
2022-12-17T07:58:00.571Z,100253.88
2022-12-17T07:59:22.325Z,100261.31
2022-12-17T08:00:48.951Z,100266.41
2022-12-17T08:02:10.192Z,100274.59
2022-12-17T08:03:42.731Z,100278.31
2022-12-17T08:05:03.629Z,100274.59
2022-12-17T08:06:24.651Z,100280.75
2022-12-17T08:07:45.747Z,100279.47
2022-12-17T08:09:13.877Z,100281.28
2022-12-17T08:10:35.070Z,100279.41
2022-12-17T08:11:56.145Z,100279.47
2022-12-17T08:13:36.302Z,100288.94
2022-12-17T08:14:57.492Z,100288.91
2022-12-17T08:16:18.922Z,100280.47
2022-12-17T08:17:40.040Z,100292.63
2022-12-17T08:19:01.080Z,100301.16
2022-12-17T08:20:22.258Z,100298.00
2022-12-17T08:21:43.373Z,100301.44
2022-12-17T08:23:04.452Z,100301.22
2022-12-17T08:24:25.568Z,100307.63
2022-12-17T08:25:46.528Z,100308.50
2022-12-17T08:27:07.651Z,100314.88
2022-12-17T08:28:49.470Z,100314.31
2022-12-17T08:30:09.170Z,100312.56
2022-12-17T08:31:29.784Z,100310.69
2022-12-17T08:32:50.839Z,100311.00
2022-12-17T08:34:14.436Z,100320.69
2022-12-17T08:35:35.603Z,100315.59
2022-12-17T08:36:56.324Z,100323.00
2022-12-17T08:38:26.118Z,100316.00
2022-12-17T08:39:47.256Z,100327.22
2022-12-17T08:41:08.486Z,100336.31
2022-12-17T08:42:29.553Z,100326.56
2022-12-17T08:43:50.054Z,100330.75
2022-12-17T08:45:10.661Z,100329.56
2022-12-17T08:46:31.366Z,100332.78
2022-12-17T08:47:52.787Z,100330.97
2022-12-17T08:49:13.735Z,100325.28
2022-12-17T08:50:34.874Z,100332.28
2022-12-17T08:51:55.902Z,100334.22
2022-12-17T08:53:21.630Z,100334.16
2022-12-17T08:54:42.221Z,100331.38
2022-12-17T08:56:03.246Z,100337.03
2022-12-17T08:57:31.535Z,100331.72
2022-12-17T08:58:58.690Z,100342.00
2022-12-17T09:00:20.372Z,100338.56
2022-12-17T09:01:41.059Z,100335.13
2022-12-17T09:03:02.419Z,100342.69
2022-12-17T09:04:23.631Z,100339.16
2022-12-17T09:05:44.681Z,100342.75
2022-12-17T09:07:05.298Z,100343.00
2022-12-17T09:08:26.411Z,100345.31
2022-12-17T09:09:46.907Z,100341.47
2022-12-17T09:11:07.934Z,100332.94
2022-12-17T09:12:28.781Z,100336.50
2022-12-17T09:13:49.983Z,100340.53
2022-12-17T09:15:10.628Z,100340.91
2022-12-17T09:16:31.651Z,100341.56
2022-12-17T09:17:52.405Z,100338.94
2022-12-17T09:19:12.962Z,100350.59
2022-12-17T09:20:33.968Z,100349.16
2022-12-17T09:21:54.737Z,100352.91
2022-12-17T09:23:15.808Z,100363.63
2022-12-17T09:24:36.305Z,100350.44
2022-12-17T09:25:58.346Z,100346.84
2022-12-17T09:27:19.577Z,100350.25
2022-12-17T09:28:40.815Z,100349.88
2022-12-17T09:30:01.758Z,100348.75
2022-12-17T09:31:23.362Z,100357.94
2022-12-17T09:32:44.357Z,100358.06
2022-12-17T09:34:05.500Z,100352.81
2022-12-17T09:35:26.594Z,100362.09
2022-12-17T09:36:51.154Z,100364.81
2022-12-17T09:38:13.496Z,100368.56
2022-12-17T09:39:34.245Z,100366.44
2022-12-17T09:40:55.515Z,100367.91
2022-12-17T09:42:46.778Z,100367.34
2022-12-17T09:44:24.335Z,100361.72
2022-12-17T09:45:54.565Z,100370.63
2022-12-17T09:47:32.314Z,100365.16
2022-12-17T09:49:19.141Z,100373.31
2022-12-17T09:50:40.291Z,100355.25
2022-12-17T09:52:00.748Z,100359.03
2022-12-17T09:53:32.426Z,100358.75
2022-12-17T09:55:02.183Z,100355.81
2022-12-17T09:56:25.191Z,100359.53
2022-12-17T09:57:50.803Z,100357.66
2022-12-17T09:59:11.845Z,100363.59
2022-12-17T10:00:36.822Z,100354.75
2022-12-17T10:02:00.688Z,100352.38
2022-12-17T10:03:23.110Z,100358.56
2022-12-17T10:04:59.940Z,100359.59
2022-12-17T10:06:28.446Z,100352.03
2022-12-17T10:07:54.793Z,100361.13
2022-12-17T10:09:20.637Z,100349.66
2022-12-17T10:10:45.133Z,100366.38
2022-12-17T10:12:06.136Z,100353.97
2022-12-17T10:13:30.912Z,100358.44
2022-12-17T10:14:51.881Z,100356.63
2022-12-17T10:16:12.958Z,100351.06
2022-12-17T10:17:42.396Z,100350.63
2022-12-17T10:19:04.576Z,100359.56
2022-12-17T10:20:52.335Z,100359.59
2022-12-17T10:22:12.897Z,100364.19
2022-12-17T10:23:48.294Z,100356.38
2022-12-17T10:25:08.749Z,100361.84
2022-12-17T10:26:35.568Z,100360.19
2022-12-17T10:27:56.550Z,100366.69
2022-12-17T10:29:32.297Z,100367.25
2022-12-17T10:30:53.404Z,100366.31
2022-12-17T10:32:17.619Z,100365.16
2022-12-17T10:33:39.730Z,100357.97
2022-12-17T10:35:05.807Z,100362.06
2022-12-17T10:36:40.440Z,100357.03
2022-12-17T10:38:01.469Z,100358.91
2022-12-17T10:39:23.636Z,100347.28
2022-12-17T10:40:47.515Z,100360.38
2022-12-17T10:42:08.807Z,100348.59
2022-12-17T10:43:44.117Z,100350.25
2022-12-17T10:45:05.063Z,100365.59
2022-12-17T10:46:25.650Z,100354.22
2022-12-17T10:47:47.160Z,100351.44
2022-12-17T10:49:11.327Z,100356.34
2022-12-17T10:50:41.335Z,100363.00
2022-12-17T10:52:02.582Z,100352.50
2022-12-17T10:53:36.115Z,100356.59
2022-12-17T10:54:57.564Z,100361.09
2022-12-17T10:56:19.076Z,100358.75
2022-12-17T10:57:48.097Z,100361.56
2022-12-17T10:59:11.630Z,100357.00
2022-12-17T11:00:51.014Z,100361.78
2022-12-17T11:02:16.429Z,100354.69
2022-12-17T11:03:48.501Z,100365.38
2022-12-17T11:05:11.712Z,100368.53
2022-12-17T11:06:42.287Z,100376.13
2022-12-17T11:08:03.722Z,100374.50
2022-12-17T11:09:25.322Z,100369.88
2022-12-17T11:11:01.657Z,100379.59
2022-12-17T11:12:34.066Z,100382.03
2022-12-17T11:14:05.665Z,100378.59
2022-12-17T11:15:41.651Z,100369.22
2022-12-17T11:17:13.748Z,100375.34
2022-12-17T11:18:48.966Z,100369.63
2022-12-17T11:20:14.071Z,100377.88
2022-12-17T11:21:48.362Z,100380.25
2022-12-17T11:23:12.929Z,100379.75
2022-12-17T11:25:00.627Z,100376.66
2022-12-17T11:26:37.430Z,100371.31
2022-12-17T11:28:05.567Z,100368.00
2022-12-17T11:29:32.323Z,100361.84
2022-12-17T11:31:07.487Z,100368.22
2022-12-17T11:32:52.254Z,100366.50
2022-12-17T11:34:38.217Z,100372.69
2022-12-17T11:36:10.433Z,100370.38
2022-12-17T11:37:40.185Z,100372.13
2022-12-17T11:39:11.825Z,100371.75
2022-12-17T11:41:01.326Z,100369.44
2022-12-17T11:42:34.586Z,100370.53
2022-12-17T11:44:14.507Z,100375.31
2022-12-17T11:45:42.259Z,100386.66
2022-12-17T11:47:22.204Z,100375.59
2022-12-17T11:48:56.611Z,100374.56
2022-12-17T11:50:35.445Z,100379.72
2022-12-17T11:52:14.513Z,100370.50
2022-12-17T11:53:44.280Z,100371.81
2022-12-17T11:55:23.048Z,100367.16
2022-12-17T11:56:56.703Z,100381.38
2022-12-17T11:58:24.282Z,100376.81
2022-12-17T11:59:58.161Z,100370.44
2022-12-17T12:02:16.611Z,100375.09
2022-12-17T12:04:02.293Z,100376.59
2022-12-17T12:06:00.714Z,100370.84
2022-12-17T12:07:39.532Z,100362.34
2022-12-17T12:09:03.198Z,100371.22
2022-12-17T12:10:36.840Z,100365.19
2022-12-17T12:12:08.547Z,100367.28
2022-12-17T12:13:45.120Z,100367.16
2022-12-17T12:15:14.845Z,100368.94
2022-12-17T12:16:45.109Z,100372.91
2022-12-17T12:18:21.775Z,100367.88
2022-12-17T12:20:03.163Z,100374.91
2022-12-17T12:21:58.572Z,100373.34
2022-12-17T12:23:41.946Z,100378.13
2022-12-17T12:25:36.086Z,100369.13
2022-12-17T12:27:22.160Z,100380.19
2022-12-17T12:28:42.627Z,100378.06
2022-12-17T12:30:39.309Z,100380.75
2022-12-17T12:32:12.046Z,100385.47
2022-12-17T12:34:05.696Z,100378.41
2022-12-17T12:35:33.672Z,100387.47
2022-12-17T12:36:56.312Z,100383.69
2022-12-17T12:38:18.953Z,100380.44
2022-12-17T12:39:55.296Z,100386.47
2022-12-17T12:41:35.443Z,100378.66
2022-12-17T12:43:19.725Z,100384.84
2022-12-17T12:45:03.993Z,100388.06
2022-12-17T12:46:54.059Z,100384.69
2022-12-17T12:48:52.444Z,100377.44
2022-12-17T12:50:22.018Z,100367.63
2022-12-17T12:51:46.668Z,100376.56
2022-12-17T12:53:07.695Z,100376.16
2022-12-17T12:54:50.685Z,100382.47
2022-12-17T12:56:11.620Z,100388.41
2022-12-17T12:57:48.874Z,100383.31
2022-12-17T12:59:10.087Z,100386.78
2022-12-17T13:00:53.182Z,100378.94
2022-12-17T13:02:14.173Z,100390.22
2022-12-17T13:04:16.275Z,100391.81
2022-12-17T13:05:43.836Z,100377.56
2022-12-17T13:06:56.933Z,100383.84
2022-12-17T13:08:03.332Z,100381.94
2022-12-17T13:09:17.961Z,100380.03
2022-12-17T13:10:29.605Z,100380.31
2022-12-17T13:11:38.122Z,100375.19
2022-12-17T13:12:49.653Z,100373.66
2022-12-17T13:13:56.515Z,100369.78
2022-12-17T13:15:06.681Z,100371.91
2022-12-17T13:16:33.097Z,100371.16
2022-12-17T13:17:46.178Z,100368.88
2022-12-17T13:18:48.821Z,100358.56
2022-12-17T13:19:56.904Z,100353.09
2022-12-17T13:21:04.734Z,100362.34
2022-12-17T13:22:23.387Z,100360.53
2022-12-17T13:23:30.757Z,100358.00
2022-12-17T13:24:33.112Z,100358.69
2022-12-17T13:25:35.889Z,100361.84
2022-12-17T13:26:40.868Z,100351.16
2022-12-17T13:27:43.661Z,100360.41
2022-12-17T13:29:19.366Z,100360.13
2022-12-17T13:30:31.054Z,100362.50
2022-12-17T13:31:48.056Z,100350.91
2022-12-17T13:33:08.960Z,100356.50
2022-12-17T13:34:19.970Z,100365.34
2022-12-17T13:35:30.389Z,100362.28
2022-12-17T13:37:07.863Z,100370.00
2022-12-17T13:38:35.120Z,100368.03
2022-12-17T13:39:45.632Z,100360.50
2022-12-17T13:41:13.112Z,100370.44
2022-12-17T13:42:27.812Z,100370.50
2022-12-17T13:43:38.516Z,100367.09
2022-12-17T13:44:45.776Z,100372.16
2022-12-17T13:45:50.435Z,100363.63
2022-12-17T13:46:54.319Z,100375.50
2022-12-17T13:47:58.802Z,100378.19
2022-12-17T13:49:16.099Z,100367.16
2022-12-17T13:50:37.174Z,100366.19
2022-12-17T13:51:39.506Z,100383.78
2022-12-17T13:52:41.769Z,100372.41
2022-12-17T13:53:52.913Z,100380.63
2022-12-17T13:55:08.050Z,100383.81
2022-12-17T13:56:10.451Z,100390.28
2022-12-17T13:57:18.805Z,100382.59
2022-12-17T13:58:27.621Z,100385.03
2022-12-17T13:59:30.126Z,100385.78
2022-12-17T14:00:32.769Z,100399.59
2022-12-17T14:01:45.552Z,100386.59
2022-12-17T14:02:48.907Z,100391.91
2022-12-17T14:04:06.253Z,100387.66
2022-12-17T14:05:24.180Z,100390.78
2022-12-17T14:06:34.125Z,100394.75
2022-12-17T14:07:39.316Z,100392.44
2022-12-17T14:08:42.332Z,100396.13
2022-12-17T14:09:44.669Z,100395.00
2022-12-17T14:11:14.448Z,100392.97
2022-12-17T14:12:22.029Z,100392.19
2022-12-17T14:13:25.621Z,100387.22
2022-12-17T14:14:33.710Z,100385.38
2022-12-17T14:15:36.733Z,100398.44
2022-12-17T14:16:42.824Z,100392.06
2022-12-17T14:17:50.686Z,100395.28
2022-12-17T14:18:57.164Z,100391.63
2022-12-17T14:20:05.155Z,100390.69
2022-12-17T14:21:09.724Z,100394.66
2022-12-17T14:22:32.373Z,100397.03
2022-12-17T14:23:34.647Z,100393.31
2022-12-17T14:24:36.900Z,100394.59
2022-12-17T14:25:41.049Z,100394.78
2022-12-17T14:26:52.110Z,100401.25
2022-12-17T14:28:04.287Z,100400.69
2022-12-17T14:29:14.028Z,100403.19
2022-12-17T14:30:46.117Z,100400.94
2022-12-17T14:38:02.842Z,100402.47
2022-12-17T14:39:17.130Z,100401.66
2022-12-17T14:40:19.855Z,100399.06
2022-12-17T14:41:41.566Z,100408.69
2022-12-17T14:42:43.978Z,100406.13
2022-12-17T14:43:46.340Z,100393.63
2022-12-17T14:45:03.192Z,100395.91
2022-12-17T14:46:20.682Z,100394.47
2022-12-17T14:47:36.515Z,100402.81
2022-12-17T14:48:57.436Z,100397.75
2022-12-17T14:50:17.870Z,100405.69
2022-12-17T14:51:28.207Z,100407.00
2022-12-17T14:52:48.751Z,100408.03
2022-12-17T14:53:51.093Z,100411.50
2022-12-17T14:54:53.457Z,100407.00
2022-12-17T14:55:57.319Z,100408.59
2022-12-17T14:57:00.434Z,100404.19
2022-12-17T14:58:11.495Z,100404.19
2022-12-17T14:59:33.624Z,100416.03
2022-12-17T15:00:45.092Z,100411.75
2022-12-17T15:01:51.339Z,100410.50
2022-12-17T15:02:56.586Z,100414.41
2022-12-17T15:03:59.365Z,100406.00
2022-12-17T15:05:02.740Z,100407.56
2022-12-17T15:06:08.061Z,100409.41
2022-12-17T15:07:18.056Z,100403.53
2022-12-17T15:08:21.726Z,100403.47
2022-12-17T15:09:24.445Z,100407.69
2022-12-17T15:10:26.664Z,100404.28
2022-12-17T15:11:29.065Z,100405.88
2022-12-17T15:12:31.316Z,100409.13
2022-12-17T15:13:33.824Z,100412.53
2022-12-17T15:14:36.084Z,100403.25
2022-12-17T15:15:38.365Z,100401.94
2022-12-17T15:16:41.114Z,100403.72
2022-12-17T15:17:44.281Z,100405.00
2022-12-17T15:18:46.544Z,100406.03
2022-12-17T15:19:55.629Z,100406.56
2022-12-17T15:20:58.346Z,100418.88
2022-12-17T15:22:00.555Z,100415.31
2022-12-17T15:23:02.891Z,100417.81
2022-12-17T15:24:07.088Z,100417.03
2022-12-17T15:25:15.863Z,100422.88
2022-12-17T15:26:19.574Z,100423.59
2022-12-17T15:27:21.842Z,100427.88
2022-12-17T15:28:26.779Z,100423.69
2022-12-17T15:29:29.055Z,100428.72
2022-12-17T15:30:31.284Z,100424.44
2022-12-17T15:31:35.662Z,100428.56
2022-12-17T15:32:38.464Z,100431.94
2022-12-17T15:33:41.473Z,100435.41
2022-12-17T15:34:45.904Z,100426.84
2022-12-17T15:35:48.201Z,100427.88
2022-12-17T15:36:50.463Z,100425.19
2022-12-17T15:37:52.918Z,100432.63
2022-12-17T15:38:55.151Z,100435.00
2022-12-17T15:39:57.428Z,100430.63
2022-12-17T15:41:00.872Z,100433.41
2022-12-17T15:42:21.914Z,100435.88
2022-12-17T15:43:24.189Z,100433.13
2022-12-17T15:44:26.660Z,100431.94
2022-12-17T15:45:29.109Z,100436.09
2022-12-17T15:46:31.365Z,100443.91
2022-12-17T15:47:33.627Z,100441.91
2022-12-17T15:48:37.166Z,100448.00
2022-12-17T15:49:39.592Z,100443.47
2022-12-17T15:50:44.591Z,100441.09
2022-12-17T15:51:46.885Z,100439.16
2022-12-17T15:52:49.069Z,100444.09
2022-12-17T15:53:51.373Z,100442.16
2022-12-17T15:54:53.618Z,100448.94
2022-12-17T15:56:03.396Z,100440.44
2022-12-17T15:57:05.684Z,100438.56
2022-12-17T15:58:11.403Z,100445.53
2022-12-17T15:59:13.707Z,100443.88
2022-12-17T16:00:16.221Z,100441.34
2022-12-17T16:01:19.784Z,100448.13
2022-12-17T16:02:22.372Z,100443.66
2022-12-17T16:03:24.867Z,100442.78
2022-12-17T16:04:27.154Z,100440.84
2022-12-17T16:05:29.536Z,100450.50
2022-12-17T16:06:33.539Z,100447.50
2022-12-17T16:07:36.968Z,100443.09
2022-12-17T16:08:42.277Z,100446.09
2022-12-17T16:09:47.508Z,100451.75
2022-12-17T16:10:49.683Z,100441.38
2022-12-17T16:11:55.382Z,100447.19
2022-12-17T16:12:57.992Z,100444.47
2022-12-17T16:14:00.615Z,100441.84
2022-12-17T16:15:03.471Z,100452.78
2022-12-17T16:16:06.964Z,100451.69
2022-12-17T16:17:09.244Z,100454.81
2022-12-17T16:18:11.426Z,100453.63
2022-12-17T16:19:13.667Z,100451.81
2022-12-17T16:20:18.638Z,100453.69
2022-12-17T16:21:20.932Z,100450.47
2022-12-17T16:22:27.710Z,100452.78
2022-12-17T16:23:30.338Z,100454.28
2022-12-17T16:24:32.597Z,100448.50
2022-12-17T16:25:34.799Z,100449.25
2022-12-17T16:26:39.276Z,100453.72
2022-12-17T16:27:41.484Z,100452.66
2022-12-17T16:28:49.253Z,100447.16
2022-12-17T16:29:51.578Z,100445.53
2022-12-17T16:31:05.540Z,100449.97
2022-12-17T16:32:07.935Z,100440.94
2022-12-17T16:33:10.273Z,100443.94
2022-12-17T16:34:13.800Z,100438.22
2022-12-17T16:35:16.134Z,100441.56
2022-12-17T16:36:20.597Z,100436.59
2022-12-17T16:37:22.858Z,100421.19
2022-12-17T16:38:25.035Z,100426.38
2022-12-17T16:39:28.282Z,100431.47
2022-12-17T16:40:30.777Z,100435.59
2022-12-17T16:41:33.685Z,100436.44
2022-12-17T16:42:36.248Z,100422.63
2022-12-17T16:43:38.995Z,100432.97
2022-12-17T16:44:43.653Z,100434.56
2022-12-17T16:45:51.429Z,100439.69
2022-12-17T16:46:53.924Z,100438.22
2022-12-17T16:47:56.253Z,100437.34
2022-12-17T16:49:03.705Z,100433.78
2022-12-17T16:50:06.290Z,100437.06
2022-12-17T16:51:27.906Z,100450.03
2022-12-17T16:52:32.065Z,100448.81
2022-12-17T16:53:34.788Z,100449.97
2022-12-17T16:54:37.116Z,100446.88
2022-12-17T16:55:44.740Z,100453.63
2022-12-17T16:56:47.457Z,100446.06
2022-12-17T16:57:49.738Z,100451.59
2022-12-17T16:58:52.584Z,100447.47
2022-12-17T16:59:54.823Z,100450.84
2022-12-17T17:00:57.071Z,100462.13
2022-12-17T17:02:00.281Z,100448.34
2022-12-17T17:03:04.201Z,100451.16
2022-12-17T17:04:08.934Z,100450.25
2022-12-17T17:05:11.281Z,100451.09
2022-12-17T17:06:13.886Z,100453.84
2022-12-17T17:07:16.085Z,100463.31
2022-12-17T17:08:20.891Z,100460.75
2022-12-17T17:09:24.815Z,100467.81
2022-12-17T17:10:27.685Z,100462.50
2022-12-17T17:11:29.873Z,100460.47
2022-12-17T17:12:32.262Z,100459.34
2022-12-17T17:13:34.783Z,100459.16
2022-12-17T17:14:36.995Z,100462.78